Time;durP1;ratioP1;P1;durP2;ratioP2;P2;SDS_P1;SDS_P2;PMS_P1;PMS_P2;Temp;Humidity;BMP_temperature;BMP_pressure;BME280_temperature;BME280_humidity;BME280_pressure;Samples;Min_cycle;Max_cycle;Signal;HPM_P1;HPM_P2
2022/01/15 00:01:30;;;;;;;130.02;64.88;;;;;;;;;;5033033;28;20025;-70
2022/01/15 00:03:55;;;;;;;159.45;72.05;;;;;;;;;;5033554;28;20041;-65
2022/01/15 00:06:21;;;;;;;160.13;72.63;;;;;;;;;;5033895;28;20502;-65
2022/01/15 00:08:47;;;;;;;183.32;86.50;;;;;;;;;;5034475;28;20033;-65
2022/01/15 00:11:13;;;;;;;155.05;73.93;;;;;;;;;;5034522;28;20027;-65
2022/01/15 00:13:41;;;;;;;98.10;46.60;;;;;;;;;;5034029;28;20107;-64
2022/01/15 00:16:11;;;;;;;108.25;48.97;;;;;;;;;;5032447;28;20461;-65
2022/01/15 00:18:43;;;;;;;104.53;45.92;;;;;;;;;;5034124;28;20029;-64
2022/01/15 00:21:11;;;;;;;113.15;53.03;;;;;;;;;;5033905;28;20468;-64
2022/01/15 00:23:37;;;;;;;105.68;49.17;;;;;;;;;;5034430;28;20082;-64
2022/01/15 00:26:03;;;;;;;84.25;38.72;;;;;;;;;;5034037;28;20041;-63
2022/01/15 00:28:29;;;;;;;75.60;37.60;;;;;;;;;;5033191;28;20486;-64
2022/01/15 00:30:55;;;;;;;78.28;35.25;;;;;;;;;;5033577;28;20053;-61
2022/01/15 00:33:20;;;;;;;69.07;33.70;;;;;;;;;;5034073;28;20099;-62
2022/01/15 00:35:46;;;;;;;68.72;34.33;;;;;;;;;;5033204;28;20056;-62
2022/01/15 00:38:12;;;;;;;74.05;34.15;;;;;;;;;;5033939;28;20029;-64
2022/01/15 00:40:38;;;;;;;72.10;32.63;;;;;;;;;;5033332;28;20041;-64
2022/01/15 00:43:04;;;;;;;68.15;31.60;;;;;;;;;;5033106;28;20036;-63
2022/01/15 00:45:33;;;;;;;65.43;32.83;;;;;;;;;;5033531;28;20029;-64
2022/01/15 00:47:59;;;;;;;67.07;32.75;;;;;;;;;;5031822;28;20044;-64
2022/01/15 00:50:25;;;;;;;67.95;33.85;;;;;;;;;;5032882;28;20084;-65
2022/01/15 00:52:51;;;;;;;75.30;36.65;;;;;;;;;;5033552;28;20029;-64
2022/01/15 00:55:19;;;;;;;83.75;37.90;;;;;;;;;;5033489;28;20039;-64
2022/01/15 00:57:45;;;;;;;78.22;38.28;;;;;;;;;;5032351;28;20029;-63
2022/01/15 01:00:15;;;;;;;80.25;37.72;;;;;;;;;;5032529;28;20370;-63
2022/01/15 01:02:41;;;;;;;90.43;40.40;;;;;;;;;;5033313;28;20112;-63
2022/01/15 01:05:07;;;;;;;84.55;37.65;;;;;;;;;;5032697;28;20109;-63
2022/01/15 01:07:33;;;;;;;88.20;38.63;;;;;;;;;;5033045;28;20022;-64
2022/01/15 01:23:10;;;;;;;76.10;37.20;;;;;;;;;;5025404;28;20111;-64
2022/01/15 01:25:42;;;;;;;84.53;40.63;;;;;;;;;;5052392;28;20029;-62
2022/01/15 01:28:14;;;;;;;73.18;36.63;;;;;;;;;;5038017;28;20129;-63
2022/01/15 01:31:09;;;;;;;96.30;45.15;;;;;;;;;;5052445;28;20071;-63
2022/01/15 01:36:08;;;;;;;94.43;42.85;;;;;;;;;;5051508;28;20139;-63
2022/01/15 01:38:41;;;;;;;92.18;40.67;;;;;;;;;;5043221;28;20029;-63
2022/01/15 01:41:14;;;;;;;91.97;40.67;;;;;;;;;;5008365;28;20416;-64
2022/01/15 01:43:46;;;;;;;90.13;41.20;;;;;;;;;;5012847;28;20388;-63
2022/01/15 01:49:12;;;;;;;90.82;42.75;;;;;;;;;;5002797;28;20382;-64
2022/01/15 01:51:41;;;;;;;88.10;40.63;;;;;;;;;;5012929;28;20393;-70
2022/01/15 01:54:09;;;;;;;90.60;42.30;;;;;;;;;;5012803;28;20040;-69
2022/01/15 01:56:36;;;;;;;101.13;47.35;;;;;;;;;;5012227;28;20092;-64
2022/01/15 01:59:03;;;;;;;88.80;41.70;;;;;;;;;;5012609;28;20500;-62
2022/01/15 02:01:29;;;;;;;96.05;43.00;;;;;;;;;;5032386;28;20037;-66
2022/01/15 02:03:59;;;;;;;102.20;43.38;;;;;;;;;;5031708;28;20079;-64
2022/01/15 02:06:25;;;;;;;90.07;41.25;;;;;;;;;;5031983;28;20037;-63
2022/01/15 02:08:53;;;;;;;99.05;44.55;;;;;;;;;;5031733;28;20036;-65
2022/01/15 02:11:19;;;;;;;104.20;45.03;;;;;;;;;;5031282;28;20112;-65
2022/01/15 02:13:46;;;;;;;83.57;38.22;;;;;;;;;;5031843;28;20117;-66
2022/01/15 02:16:14;;;;;;;81.10;40.20;;;;;;;;;;5031769;28;20080;-65
2022/01/15 02:18:40;;;;;;;88.95;40.58;;;;;;;;;;5031627;28;20108;-63
2022/01/15 02:23:41;;;;;;;74.35;36.30;;;;;;;;;;5031759;28;20120;-63
2022/01/15 02:26:09;;;;;;;74.65;33.65;;;;;;;;;;5031091;28;20437;-65
2022/01/15 02:28:38;;;;;;;64.00;33.00;;;;;;;;;;5028595;28;20048;-67
2022/01/15 02:31:31;;;;;;;67.53;33.78;;;;;;;;;;5031592;28;20195;-66
2022/01/15 02:33:59;;;;;;;66.53;32.72;;;;;;;;;;5030645;28;20053;-66
2022/01/15 02:36:31;;;;;;;67.65;31.88;;;;;;;;;;5031445;28;20018;-64
2022/01/15 02:38:57;;;;;;;69.50;32.08;;;;;;;;;;5031440;28;20231;-65
2022/01/15 02:41:34;;;;;;;64.53;30.83;;;;;;;;;;5031248;28;20022;-64
2022/01/15 02:44:03;;;;;;;62.70;31.45;;;;;;;;;;5030810;28;20044;-65
2022/01/15 02:48:59;;;;;;;69.88;32.67;;;;;;;;;;5030338;28;20122;-63
2022/01/15 02:51:27;;;;;;;73.53;34.65;;;;;;;;;;5032530;28;20480;-68
2022/01/15 02:53:56;;;;;;;64.57;33.03;;;;;;;;;;5032294;28;20326;-64
2022/01/15 02:56:27;;;;;;;67.35;34.85;;;;;;;;;;5031962;28;20392;-64
2022/01/15 02:58:54;;;;;;;76.90;36.90;;;;;;;;;;5025644;28;20036;-64
2022/01/15 03:01:21;;;;;;;69.47;33.72;;;;;;;;;;5037129;28;20045;-63
2022/01/15 03:03:46;;;;;;;65.35;32.50;;;;;;;;;;5027722;28;20053;-63
2022/01/15 03:06:14;;;;;;;68.05;33.33;;;;;;;;;;5031012;28;20031;-64
2022/01/15 03:08:42;;;;;;;72.50;34.38;;;;;;;;;;5031018;28;20037;-64
2022/01/15 03:11:09;;;;;;;67.10;33.83;;;;;;;;;;5030941;28;20033;-66
2022/01/15 03:13:36;;;;;;;66.72;33.97;;;;;;;;;;5031259;28;20099;-64
2022/01/15 03:16:03;;;;;;;73.88;34.95;;;;;;;;;;5031162;28;20121;-63
2022/01/15 03:18:29;;;;;;;68.43;33.25;;;;;;;;;;5030992;28;20365;-65
2022/01/15 03:20:54;;;;;;;64.97;32.60;;;;;;;;;;5029596;28;20022;-65
2022/01/15 03:23:20;;;;;;;69.47;32.88;;;;;;;;;;5030832;28;20057;-64
2022/01/15 03:25:46;;;;;;;55.50;29.98;;;;;;;;;;5032026;28;20031;-65
2022/01/15 03:28:12;;;;;;;60.15;30.60;;;;;;;;;;5031906;28;20404;-64
2022/01/15 03:30:38;;;;;;;64.35;30.55;;;;;;;;;;5032001;28;20049;-63
2022/01/15 03:33:05;;;;;;;65.75;31.15;;;;;;;;;;5031915;28;20048;-63
2022/01/15 03:35:31;;;;;;;71.43;31.58;;;;;;;;;;5031937;28;20048;-66
2022/01/15 03:37:57;;;;;;;75.03;32.65;;;;;;;;;;5033950;28;20033;-65
2022/01/15 03:40:23;;;;;;;64.45;33.33;;;;;;;;;;5035035;28;20549;-62
2022/01/15 03:42:49;;;;;;;73.80;34.92;;;;;;;;;;5035603;28;20362;-63
2022/01/15 03:45:16;;;;;;;71.80;33.35;;;;;;;;;;5035573;28;20035;-63
2022/01/15 03:47:43;;;;;;;63.35;31.92;;;;;;;;;;5034982;28;20071;-63
2022/01/15 03:50:10;;;;;;;54.17;28.38;;;;;;;;;;5022954;28;20040;-63
2022/01/15 03:52:36;;;;;;;47.60;23.45;;;;;;;;;;5034322;28;20041;-67
2022/01/15 03:55:03;;;;;;;54.17;27.10;;;;;;;;;;5034983;28;20021;-66
2022/01/15 03:57:29;;;;;;;53.03;24.85;;;;;;;;;;5033528;28;20038;-69
2022/01/15 03:59:55;;;;;;;48.58;24.95;;;;;;;;;;5024632;28;20030;-68
2022/01/15 04:02:20;;;;;;;61.53;27.08;;;;;;;;;;5015493;28;20450;-68
2022/01/15 04:04:46;;;;;;;55.78;28.20;;;;;;;;;;5015522;28;20026;-72
2022/01/15 04:07:12;;;;;;;56.05;28.05;;;;;;;;;;5015231;28;20076;-69
2022/01/15 04:09:38;;;;;;;56.85;27.58;;;;;;;;;;5015102;28;20057;-69
2022/01/15 04:12:04;;;;;;;53.85;26.88;;;;;;;;;;5015465;28;20038;-67
2022/01/15 04:14:29;;;;;;;59.38;27.98;;;;;;;;;;5015432;28;20156;-70
2022/01/15 04:16:55;;;;;;;53.90;26.52;;;;;;;;;;5015241;28;20478;-66
2022/01/15 04:19:21;;;;;;;63.33;28.30;;;;;;;;;;5015282;28;20025;-71
2022/01/15 04:21:47;;;;;;;58.30;28.00;;;;;;;;;;5015220;28;20389;-63
2022/01/15 04:24:12;;;;;;;48.35;25.13;;;;;;;;;;5014785;28;20033;-65
2022/01/15 04:26:38;;;;;;;51.42;24.65;;;;;;;;;;5014783;28;20058;-63
2022/01/15 04:29:06;;;;;;;55.00;25.77;;;;;;;;;;5040028;28;20039;-64
2022/01/15 04:31:51;;;;;;;55.00;24.80;;;;;;;;;;5034192;28;20488;-65
2022/01/15 04:34:17;;;;;;;44.80;21.50;;;;;;;;;;5034656;28;20127;-65
2022/01/15 04:36:43;;;;;;;43.78;21.48;;;;;;;;;;5034766;28;20068;-63
2022/01/15 04:39:10;;;;;;;40.95;21.02;;;;;;;;;;5034353;28;20041;-64
2022/01/15 04:41:36;;;;;;;40.38;19.90;;;;;;;;;;5034710;28;20025;-65
2022/01/15 04:44:07;;;;;;;42.70;20.15;;;;;;;;;;5034095;28;20034;-64
2022/01/15 04:46:34;;;;;;;38.58;18.45;;;;;;;;;;5033139;28;20040;-64
2022/01/15 04:49:00;;;;;;;38.85;20.17;;;;;;;;;;5024688;28;20088;-65
2022/01/15 04:51:25;;;;;;;36.70;19.08;;;;;;;;;;5014280;28;20033;-65
2022/01/15 04:53:51;;;;;;;41.08;19.50;;;;;;;;;;5014171;28;20022;-65
2022/01/15 04:56:17;;;;;;;37.60;20.15;;;;;;;;;;5014302;28;20034;-64
2022/01/15 04:58:43;;;;;;;40.00;20.20;;;;;;;;;;5014006;28;20113;-64
2022/01/15 05:01:09;;;;;;;40.10;19.83;;;;;;;;;;5014041;28;20034;-63
2022/01/15 05:03:34;;;;;;;39.13;20.88;;;;;;;;;;5014309;28;20026;-64
2022/01/15 05:06:00;;;;;;;43.47;21.13;;;;;;;;;;5027023;28;20091;-63
2022/01/15 05:08:26;;;;;;;44.08;22.02;;;;;;;;;;5033543;28;20027;-64
2022/01/15 05:10:54;;;;;;;67.43;31.67;;;;;;;;;;5033435;28;20048;-62
2022/01/15 05:13:26;;;;;;;67.07;32.67;;;;;;;;;;5033765;28;20143;-62
2022/01/15 05:15:52;;;;;;;64.13;31.05;;;;;;;;;;5032868;28;20074;-63
2022/01/15 05:18:18;;;;;;;76.15;34.10;;;;;;;;;;5033544;28;20022;-69
2022/01/15 05:20:45;;;;;;;64.88;30.00;;;;;;;;;;5033094;28;20033;-68
2022/01/15 05:23:11;;;;;;;75.43;32.17;;;;;;;;;;5032798;28;20032;-71
2022/01/15 05:25:39;;;;;;;60.67;29.25;;;;;;;;;;5033444;28;20049;-72
2022/01/15 05:28:07;;;;;;;70.70;30.63;;;;;;;;;;5033476;28;20083;-69
2022/01/15 05:30:34;;;;;;;73.18;31.13;;;;;;;;;;5031051;28;20503;-70
2022/01/15 05:33:00;;;;;;;72.85;33.95;;;;;;;;;;5032859;28;20060;-73
2022/01/15 05:35:27;;;;;;;61.25;31.25;;;;;;;;;;5026728;28;20057;-69
2022/01/15 05:37:55;;;;;;;68.72;32.42;;;;;;;;;;5032786;28;20025;-70
2022/01/15 05:40:21;;;;;;;62.92;29.63;;;;;;;;;;5033141;28;20045;-70
2022/01/15 05:42:47;;;;;;;65.07;31.08;;;;;;;;;;5033222;28;20072;-70
2022/01/15 05:45:13;;;;;;;72.30;31.60;;;;;;;;;;5033073;28;20069;-70
2022/01/15 05:47:39;;;;;;;66.13;34.28;;;;;;;;;;5031525;28;20103;-69
2022/01/15 05:50:06;;;;;;;64.90;32.40;;;;;;;;;;5032666;28;20488;-70
2022/01/15 05:52:31;;;;;;;64.65;32.63;;;;;;;;;;5033121;28;20029;-71
2022/01/15 05:54:57;;;;;;;74.20;31.95;;;;;;;;;;5033209;28;20520;-74
2022/01/15 05:57:23;;;;;;;76.55;33.92;;;;;;;;;;5032987;28;20065;-72
2022/01/15 05:59:51;;;;;;;68.95;34.33;;;;;;;;;;5032099;28;20041;-71
2022/01/15 06:02:21;;;;;;;77.45;34.85;;;;;;;;;;5032529;28;20021;-71
2022/01/15 06:04:48;;;;;;;65.95;32.50;;;;;;;;;;5019953;28;20057;-72
2022/01/15 06:07:14;;;;;;;68.32;34.05;;;;;;;;;;5024856;28;20034;-71
2022/01/15 06:09:39;;;;;;;71.95;32.85;;;;;;;;;;5032084;28;20075;-70
2022/01/15 06:12:05;;;;;;;78.25;33.95;;;;;;;;;;5032825;28;20029;-69
2022/01/15 06:14:31;;;;;;;64.68;32.28;;;;;;;;;;5032419;28;20037;-69
2022/01/15 06:16:58;;;;;;;64.35;32.40;;;;;;;;;;5032150;28;20029;-70
2022/01/15 06:19:25;;;;;;;68.70;33.88;;;;;;;;;;5032503;28;20155;-69
2022/01/15 06:21:52;;;;;;;63.45;31.30;;;;;;;;;;5032556;28;20032;-70
2022/01/15 06:24:18;;;;;;;59.40;31.27;;;;;;;;;;5036115;28;20061;-70
2022/01/15 06:26:44;;;;;;;60.58;32.58;;;;;;;;;;5037405;28;20030;-70
2022/01/15 06:29:09;;;;;;;70.47;33.08;;;;;;;;;;5031613;28;20044;-70
2022/01/15 06:31:35;;;;;;;58.10;29.80;;;;;;;;;;5031823;28;20484;-70
2022/01/15 06:34:02;;;;;;;59.58;31.23;;;;;;;;;;5026926;28;20112;-69
2022/01/15 06:36:29;;;;;;;65.30;32.42;;;;;;;;;;5025295;28;20546;-71
2022/01/15 06:38:55;;;;;;;64.10;32.95;;;;;;;;;;5028381;28;20033;-70
2022/01/15 06:41:21;;;;;;;70.05;35.83;;;;;;;;;;5031584;28;20030;-71
2022/01/15 06:43:46;;;;;;;67.10;34.28;;;;;;;;;;5030545;28;20033;-70
2022/01/15 06:46:12;;;;;;;61.97;34.28;;;;;;;;;;5031719;28;20033;-71
2022/01/15 06:48:38;;;;;;;77.28;37.08;;;;;;;;;;5030669;28;20068;-71
2022/01/15 06:51:04;;;;;;;68.28;35.03;;;;;;;;;;5031590;28;20060;-70
2022/01/15 06:53:30;;;;;;;62.35;29.52;;;;;;;;;;5031766;28;20033;-71
2022/01/15 06:55:56;;;;;;;77.05;38.33;;;;;;;;;;5031902;28;20080;-72
2022/01/15 06:58:25;;;;;;;67.47;34.95;;;;;;;;;;5031892;28;20037;-71
2022/01/15 07:00:52;;;;;;;77.07;42.90;;;;;;;;;;5012234;28;20042;-71
2022/01/15 07:03:17;;;;;;;84.82;44.15;;;;;;;;;;5012430;28;20042;-72
2022/01/15 07:05:43;;;;;;;84.10;41.42;;;;;;;;;;5011961;28;20018;-71
2022/01/15 07:08:09;;;;;;;76.00;39.83;;;;;;;;;;5011965;28;20038;-72
2022/01/15 07:10:39;;;;;;;78.65;41.30;;;;;;;;;;5012250;28;20030;-72
2022/01/15 07:13:06;;;;;;;84.35;43.60;;;;;;;;;;5015963;28;20511;-73
2022/01/15 07:15:33;;;;;;;83.72;43.53;;;;;;;;;;5015765;28;20580;-71
2022/01/15 07:17:59;;;;;;;78.82;42.55;;;;;;;;;;5015690;28;20192;-70
2022/01/15 07:20:26;;;;;;;76.45;43.05;;;;;;;;;;5029924;28;20057;-71
2022/01/15 07:22:52;;;;;;;79.35;44.28;;;;;;;;;;5035607;28;20041;-71
2022/01/15 07:25:18;;;;;;;82.55;43.53;;;;;;;;;;5036011;28;20030;-70
2022/01/15 07:27:44;;;;;;;94.22;45.80;;;;;;;;;;5034937;28;20080;-70
2022/01/15 07:30:12;;;;;;;90.93;45.75;;;;;;;;;;5034722;28;20527;-71
2022/01/15 07:32:40;;;;;;;85.72;44.25;;;;;;;;;;5035197;28;20030;-73
2022/01/15 07:35:06;;;;;;;97.88;47.25;;;;;;;;;;5035470;28;20083;-71
2022/01/15 07:37:32;;;;;;;74.93;39.22;;;;;;;;;;5020691;28;20029;-69
2022/01/15 07:39:59;;;;;;;79.13;41.90;;;;;;;;;;5033384;28;20033;-70
2022/01/15 07:42:25;;;;;;;74.90;41.20;;;;;;;;;;5024376;28;20129;-71
2022/01/15 07:44:50;;;;;;;81.05;40.33;;;;;;;;;;5015290;28;20113;-70
2022/01/15 07:47:16;;;;;;;61.05;34.83;;;;;;;;;;5015713;28;20034;-70
2022/01/15 07:49:42;;;;;;;66.80;36.08;;;;;;;;;;5015456;28;20030;-72
2022/01/15 07:52:08;;;;;;;77.03;36.40;;;;;;;;;;5015454;28;20034;-73
2022/01/15 07:54:34;;;;;;;65.18;33.80;;;;;;;;;;5015609;28;20022;-75
2022/01/15 07:56:59;;;;;;;60.65;32.58;;;;;;;;;;5015214;28;20474;-75
2022/01/15 07:59:25;;;;;;;59.92;29.75;;;;;;;;;;5015051;28;20048;-71
2022/01/15 08:01:51;;;;;;;59.38;32.80;;;;;;;;;;5014077;28;20072;-72
2022/01/15 08:04:17;;;;;;;59.55;33.20;;;;;;;;;;5014886;28;20021;-72
2022/01/15 08:06:43;;;;;;;66.38;33.17;;;;;;;;;;5014970;28;20061;-71
2022/01/15 08:09:08;;;;;;;64.45;34.05;;;;;;;;;;5014961;28;20022;-72
2022/01/15 08:11:35;;;;;;;68.18;34.28;;;;;;;;;;5014737;28;20072;-71
2022/01/15 08:14:00;;;;;;;72.05;36.58;;;;;;;;;;5015147;28;20041;-70
2022/01/15 08:16:27;;;;;;;71.22;37.22;;;;;;;;;;5014853;28;20131;-72
2022/01/15 08:18:53;;;;;;;66.05;36.20;;;;;;;;;;5014826;28;20022;-72
2022/01/15 08:21:19;;;;;;;71.20;38.10;;;;;;;;;;5015009;28;20125;-72
2022/01/15 08:23:44;;;;;;;77.95;36.60;;;;;;;;;;5013928;28;20109;-71
2022/01/15 08:26:10;;;;;;;61.97;33.67;;;;;;;;;;5015035;28;20045;-70
2022/01/15 08:28:37;;;;;;;65.55;34.83;;;;;;;;;;5014473;28;20026;-70
2022/01/15 08:31:06;;;;;;;77.93;42.00;;;;;;;;;;5012672;28;20045;-72
2022/01/15 08:33:32;;;;;;;86.10;42.50;;;;;;;;;;5013472;28;20045;-70
2022/01/15 08:35:58;;;;;;;82.93;41.63;;;;;;;;;;5012806;28;20416;-71
2022/01/15 08:38:24;;;;;;;75.82;42.70;;;;;;;;;;5014078;28;20030;-71
2022/01/15 08:40:51;;;;;;;86.22;44.42;;;;;;;;;;5014287;28;20113;-70
2022/01/15 08:43:17;;;;;;;80.82;43.67;;;;;;;;;;5014923;28;20455;-71
2022/01/15 08:45:43;;;;;;;82.07;42.90;;;;;;;;;;5014256;28;20030;-72
2022/01/15 08:48:10;;;;;;;82.38;43.03;;;;;;;;;;5014189;28;20100;-71
2022/01/15 08:50:36;;;;;;;81.25;40.17;;;;;;;;;;5017295;28;20040;-73
2022/01/15 08:53:06;;;;;;;80.90;43.45;;;;;;;;;;5033577;28;20044;-71
2022/01/15 08:55:35;;;;;;;76.72;40.55;;;;;;;;;;5033194;28;20026;-71
2022/01/15 08:58:02;;;;;;;74.30;40.63;;;;;;;;;;5013371;28;20507;-70
2022/01/15 09:00:28;;;;;;;73.28;39.33;;;;;;;;;;5033084;28;20046;-71
2022/01/15 09:02:55;;;;;;;89.15;44.17;;;;;;;;;;5033888;28;20492;-72
2022/01/15 09:05:23;;;;;;;75.97;39.08;;;;;;;;;;5033532;28;20112;-71
2022/01/15 09:07:49;;;;;;;70.57;38.45;;;;;;;;;;5033113;28;20025;-71
2022/01/15 09:10:15;;;;;;;69.22;37.65;;;;;;;;;;5033182;28;20392;-69
2022/01/15 09:12:41;;;;;;;69.63;38.65;;;;;;;;;;5033313;28;20049;-70
2022/01/15 09:15:07;;;;;;;70.43;38.05;;;;;;;;;;5033786;28;20426;-70
2022/01/15 09:17:33;;;;;;;71.05;38.60;;;;;;;;;;5033103;28;20103;-72
2022/01/15 09:20:00;;;;;;;64.82;37.65;;;;;;;;;;5032942;28;20091;-72
2022/01/15 09:22:26;;;;;;;71.80;39.08;;;;;;;;;;5032723;28;20021;-72
2022/01/15 09:24:51;;;;;;;71.60;40.17;;;;;;;;;;5032875;28;20030;-72
2022/01/15 09:30:15;;;;;;;78.03;43.15;;;;;;;;;;5026431;28;20042;-71
2022/01/15 09:32:52;;;;;;;81.18;41.78;;;;;;;;;;5019896;28;20034;-71
2022/01/15 09:35:23;;;;;;;73.30;38.03;;;;;;;;;;5030670;28;20558;-71
2022/01/15 09:37:50;;;;;;;78.68;41.22;;;;;;;;;;5031751;28;20029;-72
2022/01/15 09:40:18;;;;;;;82.50;42.83;;;;;;;;;;5031435;28;20073;-70
2022/01/15 09:42:47;;;;;;;76.45;42.13;;;;;;;;;;5031281;28;20491;-70
2022/01/15 09:45:13;;;;;;;81.70;42.83;;;;;;;;;;5032032;28;20017;-70
2022/01/15 09:47:40;;;;;;;84.15;43.30;;;;;;;;;;5029048;28;20703;-72
2022/01/15 09:50:08;;;;;;;76.78;41.78;;;;;;;;;;5030358;28;20033;-73
2022/01/15 09:52:35;;;;;;;69.63;39.75;;;;;;;;;;5031966;28;20026;-76
2022/01/15 09:55:02;;;;;;;76.60;40.75;;;;;;;;;;5031018;28;20061;-76
2022/01/15 09:57:28;;;;;;;74.32;42.28;;;;;;;;;;5031074;28;20435;-76
2022/01/15 09:59:54;;;;;;;81.07;42.90;;;;;;;;;;5032514;28;20038;-78
2022/01/15 10:02:20;;;;;;;80.55;43.13;;;;;;;;;;5031953;28;20041;-75
2022/01/15 10:04:46;;;;;;;88.03;42.05;;;;;;;;;;5032078;28;20021;-76
2022/01/15 10:07:22;;;;;;;75.40;41.50;;;;;;;;;;5030926;28;20040;-76
2022/01/15 10:09:50;;;;;;;73.53;40.97;;;;;;;;;;5032438;28;20033;-76
2022/01/15 10:12:28;;;;;;;75.63;40.20;;;;;;;;;;5031287;28;20468;-76
2022/01/15 10:14:59;;;;;;;75.43;41.53;;;;;;;;;;5030278;28;20445;-72
2022/01/15 10:17:26;;;;;;;72.20;39.03;;;;;;;;;;5035174;28;20056;-73
2022/01/15 10:19:52;;;;;;;70.60;36.75;;;;;;;;;;5031611;28;20417;-75
2022/01/15 10:22:22;;;;;;;65.20;36.80;;;;;;;;;;5032242;28;20142;-75
2022/01/15 10:25:03;;;;;;;65.95;38.22;;;;;;;;;;5031160;28;20025;-74
2022/01/15 10:27:34;;;;;;;62.38;33.92;;;;;;;;;;5030874;28;20029;-73
2022/01/15 10:30:08;;;;;;;56.58;31.23;;;;;;;;;;5031331;28;20037;-77
2022/01/15 10:32:37;;;;;;;76.07;36.70;;;;;;;;;;5031689;28;20064;-73
2022/01/15 10:35:16;;;;;;;64.55;35.10;;;;;;;;;;5031152;28;20416;-72
2022/01/15 10:37:51;;;;;;;62.10;34.45;;;;;;;;;;5031184;28;20029;-74
2022/01/15 10:40:20;;;;;;;44.60;27.02;;;;;;;;;;5016171;28;20068;-72
2022/01/15 10:42:58;;;;;;;51.13;28.75;;;;;;;;;;5031033;28;20022;-72
2022/01/15 10:45:26;;;;;;;48.83;27.85;;;;;;;;;;5031103;28;20094;-72
2022/01/15 10:47:55;;;;;;;51.75;28.33;;;;;;;;;;5022376;28;20025;-73
2022/01/15 10:50:28;;;;;;;50.70;29.38;;;;;;;;;;5032984;28;20056;-76
2022/01/15 10:52:55;;;;;;;;;;;;;;;;;;5032454;28;20370;-69
2022/01/15 10:55:31;;;;;;;37.53;21.67;;;;;;;;;;5033072;28;20008;-72
2022/01/15 10:58:01;;;;;;;33.33;19.52;;;;;;;;;;5033843;28;20047;-72
2022/01/15 11:00:41;;;;;;;32.83;19.15;;;;;;;;;;5034632;28;20041;-72
2022/01/15 11:03:10;;;;;;;32.78;18.38;;;;;;;;;;5033800;28;20477;-72
2022/01/15 11:05:42;;;;;;;28.02;17.20;;;;;;;;;;5032405;28;20465;-71
2022/01/15 11:08:23;;;;;;;29.85;17.52;;;;;;;;;;5033582;28;20064;-71
2022/01/15 11:10:56;;;;;;;29.90;18.05;;;;;;;;;;5030801;28;20087;-74
2022/01/15 11:13:25;;;;;;;29.23;18.58;;;;;;;;;;5034154;28;20061;-73
2022/01/15 11:15:56;;;;;;;28.83;17.75;;;;;;;;;;5034109;28;20075;-72
2022/01/15 11:18:30;;;;;;;13.07;7.82;;;;;;;;;;5029478;28;20095;-72
2022/01/15 11:21:03;;;;;;;5.60;3.40;;;;;;;;;;5033207;28;20060;-73
2022/01/15 11:23:31;;;;;;;5.20;2.83;;;;;;;;;;5030411;28;20120;-71
2022/01/15 11:26:00;;;;;;;6.82;2.60;;;;;;;;;;5033811;28;20032;-72
2022/01/15 11:28:30;;;;;;;4.53;2.40;;;;;;;;;;5034231;28;20068;-73
2022/01/15 11:30:58;;;;;;;5.65;2.88;;;;;;;;;;5033288;28;20045;-73
2022/01/15 11:33:37;;;;;;;8.55;3.00;;;;;;;;;;5033410;28;20033;-75
2022/01/15 11:36:05;;;;;;;6.50;3.25;;;;;;;;;;5029103;28;20038;-72
2022/01/15 11:38:33;;;;;;;6.25;3.88;;;;;;;;;;5032836;28;20366;-72
2022/01/15 11:41:00;;;;;;;7.60;4.05;;;;;;;;;;5032565;28;20148;-72
2022/01/15 11:43:25;;;;;;;6.53;3.72;;;;;;;;;;5032885;28;20041;-70
2022/01/15 11:45:57;;;;;;;8.68;3.70;;;;;;;;;;5033606;28;20032;-69
2022/01/15 11:48:33;;;;;;;7.07;2.80;;;;;;;;;;5030093;28;20047;-71
2022/01/15 11:51:13;;;;;;;5.90;3.03;;;;;;;;;;5032790;28;20068;-74
2022/01/15 11:53:59;;;;;;;4.88;2.80;;;;;;;;;;5030756;28;20076;-70
2022/01/15 11:56:27;;;;;;;5.72;2.70;;;;;;;;;;5031836;28;20025;-71
2022/01/15 11:58:57;;;;;;;7.78;4.43;;;;;;;;;;5030460;28;20022;-71
2022/01/15 12:01:42;;;;;;;5.80;3.08;;;;;;;;;;5032567;28;20034;-74
2022/01/15 12:04:28;;;;;;;4.45;2.85;;;;;;;;;;5031840;28;20029;-74
2022/01/15 12:07:03;;;;;;;6.07;2.58;;;;;;;;;;5033842;28;20029;-74
2022/01/15 12:09:39;;;;;;;10.75;4.82;;;;;;;;;;5032894;28;20033;-76
2022/01/15 12:12:17;;;;;;;6.63;3.22;;;;;;;;;;5033485;28;20128;-72
2022/01/15 12:14:52;;;;;;;8.93;3.70;;;;;;;;;;5033341;28;20615;-72
2022/01/15 12:17:42;;;;;;;8.32;3.60;;;;;;;;;;5029598;28;20032;-72
2022/01/15 12:20:33;;;;;;;6.53;3.70;;;;;;;;;;5031279;28;20524;-76
2022/01/15 12:23:23;;;;;;;7.72;3.90;;;;;;;;;;5032862;28;20013;-73
2022/01/15 12:25:55;;;;;;;10.65;4.07;;;;;;;;;;5031062;28;20437;-74
2022/01/15 12:28:23;;;;;;;11.82;4.72;;;;;;;;;;5032861;28;20036;-75
2022/01/15 12:30:54;;;;;;;8.07;4.13;;;;;;;;;;5032946;28;20041;-72
2022/01/15 12:33:20;;;;;;;9.50;4.60;;;;;;;;;;5032676;28;20033;-74
2022/01/15 12:35:52;;;;;;;8.75;4.50;;;;;;;;;;5032706;28;20021;-74
2022/01/15 12:38:27;;;;;;;9.15;3.88;;;;;;;;;;5032666;28;20034;-72
2022/01/15 12:40:56;;;;;;;6.40;3.97;;;;;;;;;;5031186;28;20026;-72
2022/01/15 12:43:36;;;;;;;10.27;4.45;;;;;;;;;;5032167;28;20038;-69
2022/01/15 12:46:07;;;;;;;7.05;3.60;;;;;;;;;;5031409;28;20040;-71
2022/01/15 12:48:36;;;;;;;8.77;4.38;;;;;;;;;;5032133;28;20040;-74
2022/01/15 12:51:04;;;;;;;6.90;4.25;;;;;;;;;;5031474;28;20435;-72
2022/01/15 12:53:33;;;;;;;8.45;4.85;;;;;;;;;;5028499;28;20095;-69
2022/01/15 12:56:00;;;;;;;10.80;5.40;;;;;;;;;;5031953;28;20171;-72
2022/01/15 12:58:28;;;;;;;6.07;4.18;;;;;;;;;;5030110;28;20554;-71
2022/01/15 13:00:54;;;;;;;9.35;5.10;;;;;;;;;;5032376;28;20028;-73
2022/01/15 13:03:25;;;;;;;11.98;6.47;;;;;;;;;;5032130;28;20151;-71
2022/01/15 13:06:03;;;;;;;12.90;5.80;;;;;;;;;;5032186;28;20029;-71
2022/01/15 13:08:36;;;;;;;6.35;3.70;;;;;;;;;;5031477;28;20052;-75
2022/01/15 13:11:04;;;;;;;12.00;4.70;;;;;;;;;;5031799;28;20045;-70
2022/01/15 13:13:35;;;;;;;8.93;3.70;;;;;;;;;;5031162;28;20156;-71
2022/01/15 13:16:08;;;;;;;6.55;3.50;;;;;;;;;;5027459;28;20029;-71
2022/01/15 13:18:35;;;;;;;8.77;4.90;;;;;;;;;;5031344;28;20108;-71
2022/01/15 13:21:04;;;;;;;9.43;4.82;;;;;;;;;;5030775;28;20579;-72
2022/01/15 13:23:41;;;;;;;7.43;4.28;;;;;;;;;;5031600;28;20246;-71
2022/01/15 13:26:10;;;;;;;8.18;4.57;;;;;;;;;;5031709;28;20041;-72
2022/01/15 13:28:37;;;;;;;7.50;4.28;;;;;;;;;;5032146;28;20163;-73
2022/01/15 13:31:04;;;;;;;9.07;4.05;;;;;;;;;;5030781;28;20461;-71
2022/01/15 13:33:37;;;;;;;10.73;4.97;;;;;;;;;;5032070;28;20038;-72
2022/01/15 13:36:12;;;;;;;9.98;4.85;;;;;;;;;;5028905;28;20055;-71
2022/01/15 13:38:40;;;;;;;11.07;5.20;;;;;;;;;;5031368;28;20069;-71
2022/01/15 13:41:14;;;;;;;9.93;4.35;;;;;;;;;;5031988;28;20795;-69
2022/01/15 13:43:42;;;;;;;10.40;4.60;;;;;;;;;;5031440;28;20451;-71
2022/01/15 13:46:19;;;;;;;11.93;5.28;;;;;;;;;;5031528;28;20022;-70
2022/01/15 13:48:53;;;;;;;8.38;4.47;;;;;;;;;;5030600;28;20451;-70
2022/01/15 13:54:08;;;;;;;7.95;4.45;;;;;;;;;;5031357;28;20039;-74
2022/01/15 13:56:37;;;;;;;7.68;4.40;;;;;;;;;;5031591;28;20368;-70
2022/01/15 13:59:05;;;;;;;6.20;3.78;;;;;;;;;;5031007;28;20472;-73
2022/01/15 14:01:36;;;;;;;7.72;4.90;;;;;;;;;;5030877;28;20449;-71
2022/01/15 14:04:30;;;;;;;10.25;4.97;;;;;;;;;;5031549;28;20384;-72
2022/01/15 14:07:05;;;;;;;9.73;4.70;;;;;;;;;;5024412;28;20049;-71
2022/01/15 14:09:33;;;;;;;8.82;4.57;;;;;;;;;;5030574;28;20083;-73
2022/01/15 14:12:01;;;;;;;10.07;4.85;;;;;;;;;;5031324;28;20484;-74
2022/01/15 14:14:31;;;;;;;9.90;5.30;;;;;;;;;;5030761;28;20041;-69
2022/01/15 14:16:59;;;;;;;7.78;4.93;;;;;;;;;;5029960;28;20040;-71
2022/01/15 14:22:18;;;;;;;6.75;4.82;;;;;;;;;;5030048;28;20388;-70
2022/01/15 14:24:43;;;;;;;8.65;4.28;;;;;;;;;;5027996;28;20048;-72
2022/01/15 14:27:24;;;;;;;9.45;4.60;;;;;;;;;;5031019;28;20029;-74
2022/01/15 14:29:55;;;;;;;9.13;4.65;;;;;;;;;;5027553;28;20042;-70
2022/01/15 14:32:23;;;;;;;8.70;4.95;;;;;;;;;;5030766;28;20044;-71
2022/01/15 14:34:57;;;;;;;9.27;5.43;;;;;;;;;;5030711;28;20806;-69
2022/01/15 14:37:23;;;;;;;;;;;;;;;;;;5030518;28;20477;-68
2022/01/15 14:39:50;;;;;;;12.13;6.65;;;;;;;;;;5029491;28;19917;-73
2022/01/15 14:42:16;;;;;;;11.23;6.32;;;;;;;;;;5029654;28;20473;-73
2022/01/15 14:44:42;;;;;;;8.63;5.18;;;;;;;;;;5028598;28;20034;-71
2022/01/15 14:47:08;;;;;;;7.97;4.70;;;;;;;;;;5029664;28;20038;-74
2022/01/15 14:49:34;;;;;;;10.77;4.80;;;;;;;;;;5031055;28;20030;-72
2022/01/15 14:51:59;;;;;;;9.00;5.60;;;;;;;;;;5030155;28;20365;-73
2022/01/15 14:54:25;;;;;;;9.38;5.32;;;;;;;;;;5031039;28;20026;-71
2022/01/15 14:56:51;;;;;;;8.75;5.07;;;;;;;;;;5030505;28;20038;-71
2022/01/15 14:59:17;;;;;;;13.20;6.20;;;;;;;;;;5030879;28;20082;-70
2022/01/15 15:01:42;;;;;;;12.27;7.53;;;;;;;;;;5030565;28;20392;-72
2022/01/15 15:04:08;;;;;;;11.23;7.10;;;;;;;;;;5031140;28;20030;-75